KDIK/DIK METAR and TAF weather

Enter ICAO airport designator
Station Type Date Time Source
KDIK METAR 2019/02/23 22:56 UTC NOAA

KDIK 232256Z AUTO 29026KT 2SM HZ CLR M09/M13 A2988 RMK AO2 PK WND 30034/2253 VIS 1V3 SLP172 T10941133


Station Type Date Time Source
KDIK Decoded METAR 2019/02/23 22:56 UTC NOAA

THEODORE ROOSEVELT REGIONAL, ND, United States (KDIK) 46-48N 102-48W 788M
Feb 23, 2019 - 05:56 PM EST / 2019.02.23 2256 UTC
Wind: from the WNW (290 degrees) at 30 MPH (26 KT):0
Visibility: 2 mile(s):0
Sky conditions: clear
Weather: haze
Temperature: 15.1 F (-9.4 C)
Windchill: -5 F (-21 C):2
Dew Point: 8.1 F (-13.3 C)
Relative Humidity: 73%
Pressure (altimeter): 29.88 in. Hg (1011 hPa)
ob: KDIK 232256Z AUTO 29026KT 2SM HZ CLR M09/M13 A2988 RMK AO2 PK WND 30034/2253 VIS 1V3 SLP172 T10941133
cycle: 23

Station Type Date Time Source
KDIK TAF 2019/02/23 18:45 UTC NOAA

TAF KDIK 231742Z 2318/2418 28012KT P6SM SKC
FM240100 31016G26KT P6SM SCT100
FM240300 31022G32KT 6SM -SHSN BKN013
FM240700 31018G28KT P6SM BKN015
FM241400 30016KT P6SM SCT025


Example: see airport list